Time;durP1;ratioP1;P1;durP2;ratioP2;P2;SDS_P1;SDS_P2;PMS_P1;PMS_P2;Temp;Humidity;BMP_temperature;BMP_pressure;BME280_temperature;BME280_humidity;BME280_pressure;Samples;Min_cycle;Max_cycle;Signal;HPM_P1;HPM_P2
2022/09/20 00:02:04;;;;;;;1.40;1.40;;;8.50;99.90;;;;;;5238367;28;20182;-47
2022/09/20 00:04:34;;;;;;;1.20;1.20;;;8.50;99.90;;;;;;5245148;28;20686;-46
2022/09/20 00:07:05;;;;;;;0.90;0.90;;;8.50;99.90;;;;;;5234793;28;20186;-47
2022/09/20 00:09:36;;;;;;;1.50;1.03;;;8.50;99.90;;;;;;5239228;28;20662;-48
2022/09/20 00:12:07;;;;;;;0.87;0.87;;;8.50;99.90;;;;;;5239475;28;20199;-48
2022/09/20 00:14:37;;;;;;;9.90;1.50;;;8.50;99.90;;;;;;5230495;28;20201;-48
2022/09/20 00:17:09;;;;;;;1.43;1.33;;;8.40;99.90;;;;;;5237436;28;20208;-48
2022/09/20 00:19:40;;;;;;;1.90;1.40;;;8.40;99.90;;;;;;5236556;28;20250;-47
2022/09/20 00:22:10;;;;;;;1.13;1.03;;;8.40;99.90;;;;;;5243755;28;20515;-48
2022/09/20 00:24:41;;;;;;;1.30;1.20;;;8.30;99.90;;;;;;5245481;28;20701;-47
2022/09/20 00:27:12;;;;;;;0.97;0.97;;;8.30;99.90;;;;;;5243650;28;20212;-47
2022/09/20 00:29:43;;;;;;;1.20;1.17;;;8.30;99.90;;;;;;5245618;28;20443;-48
2022/09/20 00:32:13;;;;;;;2.23;1.20;;;8.30;99.90;;;;;;5248246;28;20514;-48
2022/09/20 00:37:34;;;;;;;1.93;1.77;;;8.30;99.90;;;;;;5243188;28;20232;-48
2022/09/20 00:40:08;;;;;;;1.23;0.73;;;8.20;99.90;;;;;;5258651;28;20433;-48
2022/09/20 00:42:39;;;;;;;3.30;1.47;;;8.20;99.90;;;;;;5245406;28;20471;-48
2022/09/20 00:45:22;;;;;;;2.23;1.20;;;8.30;99.90;;;;;;5246634;28;20467;-47
2022/09/20 00:48:06;;;;;;;5.73;1.10;;;8.20;99.90;;;;;;5244623;28;20424;-47
2022/09/20 00:50:50;;;;;;;2.77;1.70;;;8.20;99.90;;;;;;5242554;28;20443;-49
2022/09/20 00:53:35;;;;;;;2.30;0.90;;;8.20;99.90;;;;;;5253386;28;20542;-47
2022/09/20 00:56:11;;;;;;;1.17;0.70;;;8.20;99.90;;;;;;5243564;28;20809;-48
2022/09/20 00:59:16;;;;;;;1.40;1.30;;;8.10;99.90;;;;;;5242428;28;20436;-47
2022/09/20 01:01:51;;;;;;;1.20;1.20;;;8.10;99.90;;;;;;5237963;28;20440;-47
2022/09/20 01:04:26;;;;;;;1.30;1.20;;;8.20;99.90;;;;;;5235628;28;20424;-48
2022/09/20 01:06:59;;;;;;;1.00;1.00;;;8.10;99.90;;;;;;5238157;28;20432;-46
2022/09/20 01:09:30;;;;;;;2.07;1.30;;;8.10;99.90;;;;;;5236354;28;20471;-47
2022/09/20 01:12:05;;;;;;;1.00;0.90;;;8.10;99.90;;;;;;5243947;28;20491;-48
2022/09/20 01:14:35;;;;;;;0.93;0.87;;;8.10;99.90;;;;;;5243234;28;20201;-47
2022/09/20 01:17:07;;;;;;;6.20;1.47;;;8.10;99.90;;;;;;5237950;28;20582;-47
2022/09/20 01:19:54;;;;;;;5.80;1.40;;;8.10;99.90;;;;;;5236673;28;20197;-48
2022/09/20 01:22:33;;;;;;;1.23;1.23;;;8.10;99.90;;;;;;5247572;28;20431;-46
2022/09/20 01:25:14;;;;;;;1.73;1.63;;;8.20;99.90;;;;;;5243490;28;20468;-48
2022/09/20 01:27:47;;;;;;;3.17;1.47;;;8.10;99.90;;;;;;5235572;28;20467;-45
2022/09/20 01:30:30;;;;;;;2.07;1.97;;;8.10;99.90;;;;;;5240062;28;20535;-48
2022/09/20 01:33:39;;;;;;;1.20;1.10;;;8.10;99.90;;;;;;5240190;28;20863;-47
2022/09/20 01:36:15;;;;;;;3.03;1.00;;;8.10;99.90;;;;;;5232561;28;20469;-47
2022/09/20 01:39:06;;;;;;;1.00;1.00;;;8.10;99.90;;;;;;5245811;28;20436;-47
2022/09/20 01:41:47;;;;;;;3.07;1.57;;;8.10;99.90;;;;;;5241605;28;20486;-47
2022/09/20 01:44:36;;;;;;;1.10;1.00;;;8.10;99.90;;;;;;5242589;28;20448;-47
2022/09/20 01:47:12;;;;;;;3.90;1.47;;;8.20;99.90;;;;;;5243510;28;20449;-47
2022/09/20 01:50:06;;;;;;;1.73;0.77;;;8.10;99.90;;;;;;5237068;28;23189;-47
2022/09/20 01:53:02;;;;;;;1.00;1.00;;;8.00;99.90;;;;;;5236842;28;20460;-48
2022/09/20 01:55:51;;;;;;;0.80;0.80;;;8.00;99.90;;;;;;5235811;28;20456;-48
2022/09/20 01:58:40;;;;;;;4.20;1.33;;;8.00;99.90;;;;;;5241976;28;20432;-47
2022/09/20 02:01:20;;;;;;;2.77;1.10;;;8.00;99.90;;;;;;5242805;28;20432;-47
2022/09/20 02:03:56;;;;;;;2.90;1.13;;;8.00;99.90;;;;;;5246476;28;20428;-48
2022/09/20 02:06:45;;;;;;;1.47;1.47;;;8.00;99.90;;;;;;5236683;28;20535;-47
2022/09/20 02:09:36;;;;;;;4.40;1.23;;;8.00;99.90;;;;;;5248286;28;20519;-47
2022/09/20 02:12:47;;;;;;;2.40;1.10;;;8.00;99.90;;;;;;5245857;28;20464;-48
2022/09/20 02:15:55;;;;;;;2.30;1.17;;;8.00;99.90;;;;;;5239748;28;20460;-47
2022/09/20 02:18:51;;;;;;;1.93;1.07;;;8.00;99.90;;;;;;5243883;28;20921;-47
2022/09/20 02:21:46;;;;;;;0.87;0.87;;;8.00;99.90;;;;;;5245582;28;20564;-48
2022/09/20 02:24:35;;;;;;;2.00;1.13;;;8.00;99.90;;;;;;5245735;28;20451;-48
2022/09/20 02:27:21;;;;;;;0.97;0.77;;;8.00;99.90;;;;;;5246014;28;20543;-48
2022/09/20 02:30:19;;;;;;;1.50;1.00;;;8.10;99.90;;;;;;5230373;28;20447;-48
2022/09/20 02:33:15;;;;;;;4.87;1.20;;;8.10;99.90;;;;;;5244881;28;20828;-47
2022/09/20 02:36:15;;;;;;;1.03;1.00;;;8.20;99.90;;;;;;5246605;28;20452;-47
2022/09/20 02:38:58;;;;;;;0.90;0.90;;;8.20;99.90;;;;;;5236269;28;20440;-48
2022/09/20 02:41:59;;;;;;;0.83;0.83;;;8.20;99.90;;;;;;5240970;28;20862;-48
2022/09/20 02:44:44;;;;;;;5.20;1.03;;;8.30;99.90;;;;;;5243572;28;20472;-48
2022/09/20 02:47:32;;;;;;;1.07;1.07;;;8.40;99.90;;;;;;5239001;28;20843;-48
2022/09/20 02:50:19;;;;;;;1.50;1.00;;;8.30;99.90;;;;;;5232833;28;20432;-48
2022/09/20 02:53:23;;;;;;;1.10;0.87;;;8.40;99.90;;;;;;5237928;28;20463;-47
2022/09/20 02:56:32;;;;;;;1.00;1.00;;;8.30;99.90;;;;;;5235261;28;20451;-47
2022/09/20 02:59:28;;;;;;;0.77;0.77;;;8.30;99.90;;;;;;5238819;28;20452;-48
2022/09/20 03:02:14;;;;;;;0.70;0.70;;;8.30;99.90;;;;;;5221463;28;20425;-47
2022/09/20 03:05:00;;;;;;;1.77;1.03;;;8.30;99.90;;;;;;5237042;28;20456;-48
2022/09/20 03:07:54;;;;;;;0.87;0.87;;;8.30;99.90;;;;;;5241396;28;20440;-48
2022/09/20 03:10:39;;;;;;;0.90;0.90;;;8.20;99.90;;;;;;5241148;28;20997;-47
2022/09/20 03:13:31;;;;;;;3.17;1.07;;;8.20;99.90;;;;;;5242022;28;20530;-48
2022/09/20 03:16:01;;;;;;;0.80;0.80;;;8.20;99.90;;;;;;5238361;28;20448;-48
2022/09/20 03:18:33;;;;;;;5.20;1.00;;;8.10;99.90;;;;;;5234857;28;20433;-47
2022/09/20 03:21:26;;;;;;;4.93;0.90;;;8.10;99.90;;;;;;5239705;28;20179;-48
2022/09/20 03:24:08;;;;;;;0.87;0.87;;;8.10;99.90;;;;;;5238179;28;20445;-47
2022/09/20 03:27:02;;;;;;;0.80;0.80;;;8.10;99.90;;;;;;5281341;22;20487;-51
2022/09/20 03:30:23;;;;;;;0.87;0.87;;;8.20;99.90;;;;;;5261429;28;20443;-50
2022/09/20 03:33:10;;;;;;;2.53;1.30;;;8.20;99.90;;;;;;5183488;28;20463;-52
2022/09/20 03:36:00;;;;;;;2.20;0.93;;;8.20;99.90;;;;;;5265968;28;20454;-52
2022/09/20 03:38:49;;;;;;;1.80;0.87;;;8.20;99.90;;;;;;5256358;28;20433;-50
2022/09/20 03:41:40;;;;;;;0.80;0.60;;;8.30;99.90;;;;;;5256458;28;20440;-52
2022/09/20 03:44:23;;;;;;;1.13;0.93;;;8.30;99.90;;;;;;5265861;28;20427;-51
2022/09/20 03:47:26;;;;;;;1.07;0.73;;;8.50;99.90;;;;;;5254210;28;20452;-52
2022/09/20 03:50:24;;;;;;;1.23;1.17;;;8.50;99.90;;;;;;5241638;28;20527;-51
2022/09/20 03:53:32;;;;;;;4.03;0.97;;;8.50;99.90;;;;;;5261128;28;20492;-52
2022/09/20 03:56:21;;;;;;;2.20;1.30;;;8.60;99.90;;;;;;5258495;28;20447;-50
2022/09/20 03:59:13;;;;;;;1.60;0.90;;;8.60;99.90;;;;;;5258360;28;20447;-51
2022/09/20 04:02:08;;;;;;;6.13;1.07;;;8.70;99.90;;;;;;5261336;28;20523;-52
2022/09/20 04:04:57;;;;;;;1.10;1.10;;;8.70;99.90;;;;;;5264232;28;20450;-49
2022/09/20 04:08:12;;;;;;;1.07;1.00;;;8.80;99.90;;;;;;5268106;28;20477;-51
2022/09/20 04:10:50;;;;;;;2.40;1.13;;;8.80;99.90;;;;;;5263145;28;20521;-48
2022/09/20 04:13:37;;;;;;;2.70;1.20;;;8.80;99.90;;;;;;5269437;28;20470;-50
2022/09/20 04:16:45;;;;;;;2.70;0.90;;;8.80;99.90;;;;;;5265288;28;20451;-51
2022/09/20 04:19:30;;;;;;;1.57;1.40;;;8.90;99.90;;;;;;5275841;28;20435;-51
2022/09/20 04:22:02;;;;;;;1.03;1.03;;;8.90;99.90;;;;;;5264248;28;20428;-50
2022/09/20 04:25:01;;;;;;;1.03;1.03;;;8.90;99.90;;;;;;5261739;28;20455;-52
2022/09/20 04:27:39;;;;;;;2.90;1.10;;;9.10;99.90;;;;;;5262491;28;20431;-52
2022/09/20 04:30:28;;;;;;;5.27;1.17;;;9.00;99.90;;;;;;5258859;28;21000;-50
2022/09/20 04:33:17;;;;;;;1.00;1.00;;;9.00;99.90;;;;;;5263961;28;20490;-53
2022/09/20 04:39:19;;;;;;;1.13;1.03;;;8.90;99.90;;;;;;5260841;28;20991;-51
2022/09/20 04:42:16;;;;;;;1.07;0.93;;;8.90;99.90;;;;;;5263071;28;20471;-49
2022/09/20 04:45:17;;;;;;;1.00;1.00;;;8.90;99.90;;;;;;5248888;28;20439;-51
2022/09/20 04:48:31;;;;;;;1.27;1.23;;;8.90;99.90;;;;;;5258233;28;20435;-51
2022/09/20 04:51:18;;;;;;;1.37;1.27;;;8.90;99.90;;;;;;5253453;28;20446;-48
2022/09/20 04:54:18;;;;;;;1.17;1.00;;;8.90;99.90;;;;;;5272530;27;20432;-52
2022/09/20 04:57:25;;;;;;;2.00;1.63;;;8.80;99.90;;;;;;5265043;28;20462;-52
2022/09/20 05:00:11;;;;;;;1.70;1.27;;;8.80;99.90;;;;;;5262420;28;20587;-52
2022/09/20 05:02:41;;;;;;;1.17;0.97;;;8.80;99.90;;;;;;5250599;28;20511;-51
2022/09/20 05:05:34;;;;;;;1.53;1.43;;;8.80;99.90;;;;;;5250506;28;21063;-52
2022/09/20 05:08:39;;;;;;;1.43;1.10;;;8.80;99.90;;;;;;5255217;28;20273;-51
2022/09/20 05:11:34;;;;;;;1.07;0.87;;;8.80;99.90;;;;;;5258120;28;20554;-54
2022/09/20 05:14:44;;;;;;;1.77;1.10;;;8.90;99.90;;;;;;5253772;28;20449;-50
2022/09/20 05:17:21;;;;;;;1.30;1.30;;;8.90;99.90;;;;;;5275057;28;20436;-47
2022/09/20 05:20:07;;;;;;;1.13;1.13;;;9.00;99.90;;;;;;5254986;28;20451;-47
2022/09/20 05:23:02;;;;;;;1.47;1.40;;;9.00;99.90;;;;;;5258975;28;20435;-47
2022/09/20 05:25:57;;;;;;;1.00;1.00;;;9.10;99.90;;;;;;5264562;28;20455;-47
2022/09/20 05:28:40;;;;;;;1.70;1.43;;;9.20;99.90;;;;;;5268618;28;20436;-46
2022/09/20 05:31:20;;;;;;;1.53;1.13;;;9.30;99.90;;;;;;5263660;28;20967;-46
2022/09/20 05:34:22;;;;;;;0.93;0.93;;;9.50;99.90;;;;;;5266174;28;20419;-46
2022/09/20 05:37:17;;;;;;;0.80;0.80;;;9.60;99.90;;;;;;5257771;28;20464;-47
2022/09/20 05:40:24;;;;;;;1.17;0.97;;;9.60;99.90;;;;;;5262900;28;20447;-47
2022/09/20 05:43:07;;;;;;;1.07;0.80;;;9.80;99.90;;;;;;5242348;28;20470;-46
2022/09/20 05:46:05;;;;;;;1.33;1.33;;;10.00;99.90;;;;;;5257006;28;20486;-48
2022/09/20 05:48:53;;;;;;;1.57;0.80;;;10.20;99.90;;;;;;5260569;28;20411;-52
2022/09/20 05:52:06;;;;;;;0.60;0.60;;;10.40;99.90;;;;;;5274973;28;20456;-47
2022/09/20 05:54:54;;;;;;;1.77;1.63;;;10.50;99.90;;;;;;5262155;28;20428;-48
2022/09/20 05:58:02;;;;;;;0.83;0.83;;;11.30;99.90;;;;;;5251607;28;20431;-47
2022/09/20 06:00:44;;;;;;;1.17;0.90;;;13.80;99.90;;;;;;5265939;28;20428;-49
2022/09/20 06:03:33;;;;;;;1.70;0.50;;;16.70;99.90;;;;;;5258489;28;20492;-47
2022/09/20 06:06:32;;;;;;;0.83;0.70;;;18.60;99.90;;;;;;5262275;28;20466;-47
2022/09/20 06:09:11;;;;;;;4.53;0.70;;;19.20;90.10;;;;;;5261383;28;20812;-48
2022/09/20 06:11:53;;;;;;;2.50;1.03;;;18.60;87.10;;;;;;5259496;28;21050;-47
2022/09/20 06:14:47;;;;;;;1.17;0.70;;;17.30;91.40;;;;;;5263051;28;20431;-46
2022/09/20 06:17:26;;;;;;;4.33;1.13;;;16.10;96.50;;;;;;5262413;28;20841;-46
2022/09/20 06:20:09;;;;;;;0.70;0.70;;;15.00;99.90;;;;;;5262687;28;20431;-48
2022/09/20 06:22:42;;;;;;;1.40;1.40;;;13.90;99.90;;;;;;5267531;28;20565;-49
2022/09/20 06:25:30;;;;;;;0.80;0.80;;;13.10;99.90;;;;;;5261983;28;20495;-47
2022/09/20 06:28:13;;;;;;;2.43;1.20;;;12.40;99.90;;;;;;5268279;28;20427;-47
2022/09/20 06:30:56;;;;;;;1.00;1.00;;;12.00;99.90;;;;;;5265190;28;20484;-49
2022/09/20 06:33:27;;;;;;;3.57;1.23;;;11.70;99.90;;;;;;5262938;28;20460;-48
2022/09/20 06:42:20;;;;;;;1.33;1.00;;;11.70;99.90;;;;;;5264070;28;20512;-47
2022/09/20 06:44:51;;;;;;;3.40;1.07;;;11.90;99.90;;;;;;5257829;28;20471;-47
2022/09/20 06:47:26;;;;;;;1.23;1.23;;;12.20;99.90;;;;;;5262139;28;20282;-47
2022/09/20 06:49:57;;;;;;;1.83;1.00;;;12.70;99.90;;;;;;5254910;28;20173;-47
2022/09/20 06:52:28;;;;;;;1.40;1.27;;;13.00;99.90;;;;;;5257282;28;20947;-45
2022/09/20 06:54:59;;;;;;;1.10;1.00;;;13.00;99.90;;;;;;5265347;28;20440;-47
2022/09/20 06:57:36;;;;;;;1.30;1.20;;;13.00;99.90;;;;;;5262380;28;20704;-46
2022/09/20 07:00:10;;;;;;;3.37;1.57;;;13.10;99.90;;;;;;5263768;28;20174;-48
2022/09/20 07:02:42;;;;;;;1.00;1.00;;;13.20;99.90;;;;;;5263977;28;20445;-49
2022/09/20 07:05:14;;;;;;;1.07;1.07;;;13.20;99.90;;;;;;5262214;28;20500;-46
2022/09/20 07:07:46;;;;;;;3.70;1.23;;;13.10;99.90;;;;;;5261950;28;20575;-50
2022/09/20 07:10:16;;;;;;;1.10;1.00;;;12.90;99.90;;;;;;5255416;28;20448;-52
2022/09/20 07:12:48;;;;;;;1.13;1.10;;;12.90;99.90;;;;;;5264879;28;20466;-47
2022/09/20 07:15:21;;;;;;;2.53;1.40;;;12.90;99.90;;;;;;5281910;28;20273;-48
2022/09/20 07:17:52;;;;;;;1.90;1.30;;;12.90;99.90;;;;;;5262926;28;20786;-47
2022/09/20 07:20:22;;;;;;;1.87;1.40;;;13.00;99.90;;;;;;5252173;28;20435;-50
2022/09/20 07:22:53;;;;;;;2.57;0.97;;;13.10;99.90;;;;;;5264477;28;20697;-46
2022/09/20 07:25:24;;;;;;;1.50;1.40;;;13.80;99.90;;;;;;5256554;28;20240;-54
2022/09/20 07:27:54;;;;;;;1.57;1.10;;;15.90;99.90;;;;;;5259572;28;22130;-55
2022/09/20 07:30:25;;;;;;;5.33;1.50;;;17.80;99.90;;;;;;5256530;28;20193;-48
2022/09/20 07:32:56;;;;;;;1.90;1.80;;;20.40;88.80;;;;;;5246503;28;20907;-46
2022/09/20 07:35:27;;;;;;;2.97;1.60;;;21.90;70.20;;;;;;5254550;28;20272;-48
2022/09/20 07:37:58;;;;;;;4.10;1.63;;;23.30;61.60;;;;;;5252390;28;20212;-48
2022/09/20 07:40:28;;;;;;;2.07;1.10;;;24.20;55.10;;;;;;5262473;28;20988;-49
2022/09/20 07:43:00;;;;;;;3.03;1.30;;;24.40;53.10;;;;;;5256193;28;20194;-49
2022/09/20 07:45:37;;;;;;;5.60;1.10;;;25.10;51.20;;;;;;5262369;28;20225;-49
2022/09/20 07:48:08;;;;;;;1.67;1.20;;;25.30;48.40;;;;;;5271283;28;20863;-50
2022/09/20 07:50:39;;;;;;;1.53;1.20;;;25.90;49.30;;;;;;5257279;28;20435;-50
2022/09/20 07:53:09;;;;;;;2.90;1.33;;;25.80;46.50;;;;;;5257821;28;20490;-50
2022/09/20 07:55:40;;;;;;;1.00;1.00;;;25.00;48.00;;;;;;5254486;28;20194;-49
2022/09/20 07:58:10;;;;;;;2.93;1.00;;;24.40;49.50;;;;;;5263528;28;20210;-50
2022/09/20 08:00:41;;;;;;;0.87;0.87;;;23.20;51.60;;;;;;5267904;28;20182;-49
2022/09/20 08:03:11;;;;;;;1.27;1.07;;;22.00;54.20;;;;;;5266303;28;20634;-50
2022/09/20 08:05:42;;;;;;;2.20;1.17;;;21.00;56.30;;;;;;5262960;28;20212;-51
2022/09/20 08:08:12;;;;;;;0.80;0.80;;;19.20;58.40;;;;;;5266562;28;20276;-49
2022/09/20 08:10:47;;;;;;;1.03;0.77;;;18.10;63.50;;;;;;5261831;28;20214;-50
2022/09/20 08:13:17;;;;;;;3.40;0.83;;;17.50;69.40;;;;;;5261406;28;20213;-51
2022/09/20 08:15:48;;;;;;;9.90;1.20;;;17.20;73.80;;;;;;5259928;28;21017;-50
2022/09/20 08:18:18;;;;;;;1.20;1.10;;;16.80;80.00;;;;;;5255029;28;20486;-50
2022/09/20 08:20:49;;;;;;;1.17;1.13;;;16.50;85.10;;;;;;5266187;28;20629;-48
2022/09/20 08:23:21;;;;;;;2.30;1.33;;;16.00;92.20;;;;;;5266601;28;20576;-48
2022/09/20 08:25:56;;;;;;;1.43;1.33;;;15.80;96.60;;;;;;5246436;28;20214;-50
2022/09/20 08:28:26;;;;;;;1.70;1.30;;;15.80;99.30;;;;;;5252019;28;20442;-48
2022/09/20 08:31:08;;;;;;;2.40;1.23;;;15.40;99.90;;;;;;5262666;28;20431;-47
2022/09/20 08:33:39;;;;;;;3.30;2.20;;;14.90;99.90;;;;;;5259933;28;20178;-47
2022/09/20 08:36:16;;;;;;;2.47;1.30;;;14.60;99.90;;;;;;5265600;28;20461;-48
2022/09/20 08:38:47;;;;;;;2.33;2.00;;;14.40;99.90;;;;;;5267273;28;20497;-47
2022/09/20 08:41:29;;;;;;;3.60;1.20;;;14.10;99.90;;;;;;5265892;28;20443;-48
2022/09/20 08:44:10;;;;;;;8.90;2.00;;;14.10;99.90;;;;;;5263172;28;20546;-47
2022/09/20 08:46:47;;;;;;;3.30;0.93;;;13.90;99.90;;;;;;5255606;28;20443;-48
2022/09/20 08:49:27;;;;;;;4.33;1.53;;;14.00;99.90;;;;;;5267532;28;20415;-50
2022/09/20 08:51:58;;;;;;;4.83;2.00;;;14.00;99.90;;;;;;5254158;28;20458;-49
2022/09/20 08:54:32;;;;;;;0.90;0.90;;;13.90;99.90;;;;;;5260140;28;20943;-48
2022/09/20 08:57:11;;;;;;;3.60;1.27;;;13.60;99.90;;;;;;5269235;28;20863;-47
2022/09/20 08:59:42;;;;;;;4.03;1.10;;;13.70;99.90;;;;;;5269446;28;20442;-48
2022/09/20 09:02:16;;;;;;;5.67;1.57;;;13.70;99.90;;;;;;5267561;28;20467;-48
2022/09/20 09:04:48;;;;;;;1.27;1.17;;;13.80;99.90;;;;;;5260099;28;20528;-49
2022/09/20 09:07:20;;;;;;;6.33;1.23;;;13.80;99.90;;;;;;5259544;28;20818;-49
2022/09/20 09:09:54;;;;;;;5.37;1.60;;;13.80;99.90;;;;;;5264479;28;20424;-47
2022/09/20 09:12:28;;;;;;;0.97;0.93;;;14.00;99.90;;;;;;5261661;28;20881;-48
2022/09/20 09:15:13;;;;;;;1.17;0.73;;;14.00;99.90;;;;;;5259359;28;20985;-48
2022/09/20 09:17:44;;;;;;;3.17;0.90;;;14.10;99.90;;;;;;5265238;28;20428;-48
2022/09/20 09:20:21;;;;;;;3.07;1.03;;;14.20;99.90;;;;;;5268883;28;20852;-48
2022/09/20 09:23:25;;;;;;;4.20;1.13;;;14.20;99.90;;;;;;5270546;28;20177;-48
2022/09/20 09:26:01;;;;;;;1.00;1.00;;;14.30;99.90;;;;;;5291730;22;20486;-51
2022/09/20 09:28:35;;;;;;;1.37;0.87;;;14.30;99.90;;;;;;5262239;28;20432;-52
2022/09/20 09:31:25;;;;;;;0.67;0.67;;;14.30;99.90;;;;;;5271015;28;20423;-51
2022/09/20 09:33:55;;;;;;;0.70;0.70;;;14.60;99.90;;;;;;5266364;28;20424;-51
2022/09/20 09:36:26;;;;;;;2.53;0.80;;;14.90;99.90;;;;;;5274096;28;20451;-52
2022/09/20 09:39:22;;;;;;;4.70;1.30;;;15.00;99.90;;;;;;5262013;28;20183;-51
2022/09/20 09:41:53;;;;;;;4.83;1.20;;;15.10;99.90;;;;;;5265453;28;20675;-52
2022/09/20 09:44:26;;;;;;;0.93;0.80;;;15.00;99.90;;;;;;5267006;28;20424;-53
2022/09/20 09:46:57;;;;;;;1.60;1.10;;;14.90;99.90;;;;;;5255654;28;20576;-52
2022/09/20 09:49:32;;;;;;;3.53;1.40;;;14.90;99.90;;;;;;5269993;28;20898;-52
2022/09/20 09:52:12;;;;;;;4.30;1.00;;;15.10;99.90;;;;;;5264386;28;20296;-54
2022/09/20 09:54:49;;;;;;;2.40;1.30;;;15.50;99.90;;;;;;5270071;28;20431;-51
2022/09/20 09:57:44;;;;;;;2.50;1.23;;;15.70;99.90;;;;;;5267067;28;20586;-53
2022/09/20 10:00:18;;;;;;;0.80;0.80;;;15.70;99.90;;;;;;5267091;28;20434;-52
2022/09/20 10:03:16;;;;;;;1.90;1.30;;;16.00;99.90;;;;;;5270498;28;20433;-60
2022/09/20 10:05:59;;;;;;;1.37;1.00;;;16.00;99.90;;;;;;5268230;28;21064;-51
2022/09/20 10:08:47;;;;;;;2.73;2.53;;;16.20;99.90;;;;;;5269518;28;20423;-53
2022/09/20 10:11:55;;;;;;;4.77;1.90;;;16.30;99.90;;;;;;5263830;28;21104;-51
2022/09/20 10:14:51;;;;;;;2.13;1.17;;;16.60;99.90;;;;;;5260859;28;20443;-51
2022/09/20 10:17:42;;;;;;;4.73;2.47;;;17.20;99.90;;;;;;5267334;28;20450;-52
2022/09/20 10:20:52;;;;;;;3.23;0.87;;;17.60;99.90;;;;;;5261276;28;20791;-53
2022/09/20 10:24:01;;;;;;;4.00;1.77;;;17.90;97.50;;;;;;5267575;28;20428;-51
2022/09/20 10:27:01;;;;;;;3.37;1.43;;;17.80;96.00;;;;;;5265565;28;20503;-51
2022/09/20 10:29:31;;;;;;;5.63;1.50;;;17.20;97.50;;;;;;5269290;28;20510;-52
2022/09/20 10:32:48;;;;;;;1.53;1.40;;;17.10;99.40;;;;;;5263726;28;20547;-52
2022/09/20 10:36:00;;;;;;;1.60;1.60;;;16.90;98.60;;;;;;5268519;28;20205;-52
2022/09/20 10:38:40;;;;;;;2.70;1.73;;;16.90;99.80;;;;;;5250525;28;20428;-51
2022/09/20 10:44:17;;;;;;;1.40;1.30;;;16.70;99.90;;;;;;5268399;28;20505;-52
2022/09/20 10:47:12;;;;;;;3.30;1.70;;;16.20;99.90;;;;;;5266842;28;20450;-50
2022/09/20 10:50:01;;;;;;;2.37;2.27;;;15.50;99.90;;;;;;5264351;28;20420;-51
2022/09/20 10:52:50;;;;;;;1.67;1.67;;;15.10;99.90;;;;;;5267482;28;20824;-51
2022/09/20 10:55:30;;;;;;;2.80;2.53;;;14.70;99.90;;;;;;5265397;28;20457;-51
2022/09/20 10:58:29;;;;;;;2.00;1.60;;;14.50;99.90;;;;;;5283196;28;20785;-52
2022/09/20 11:01:20;;;;;;;4.70;3.80;;;14.40;99.90;;;;;;5267397;28;20423;-51
2022/09/20 11:04:03;;;;;;;7.87;5.33;;;14.50;99.90;;;;;;5265088;28;20423;-52
2022/09/20 11:06:52;;;;;;;4.90;3.00;;;14.60;99.90;;;;;;5266437;28;20443;-51
2022/09/20 11:09:28;;;;;;;1.73;1.40;;;14.80;99.90;;;;;;5269253;28;20526;-51
2022/09/20 11:12:15;;;;;;;1.80;0.93;;;14.20;99.90;;;;;;5272456;28;20831;-50
2022/09/20 11:15:03;;;;;;;1.90;0.90;;;13.10;99.90;;;;;;5265598;28;20462;-53
2022/09/20 11:17:40;;;;;;;1.63;0.90;;;12.30;99.90;;;;;;5257979;28;20915;-51
2022/09/20 11:20:22;;;;;;;10.50;2.10;;;11.80;99.90;;;;;;5263481;28;20427;-51
2022/09/20 11:23:33;;;;;;;0.70;0.70;;;11.50;99.90;;;;;;5262081;28;20476;-51
2022/09/20 11:26:15;;;;;;;0.80;0.80;;;11.30;99.90;;;;;;5266003;28;20460;-50
2022/09/20 11:28:56;;;;;;;2.97;1.23;;;11.00;99.90;;;;;;5267114;28;20424;-50
2022/09/20 11:31:49;;;;;;;1.40;1.17;;;10.80;99.90;;;;;;5267348;28;20489;-53
2022/09/20 11:34:24;;;;;;;1.40;1.30;;;10.70;99.90;;;;;;5264269;28;20978;-51
2022/09/20 11:36:57;;;;;;;0.60;0.60;;;10.70;99.90;;;;;;5260058;28;20558;-52
2022/09/20 11:39:37;;;;;;;0.60;0.60;;;10.60;99.90;;;;;;5261360;28;20439;-51
2022/09/20 11:42:32;;;;;;;0.97;0.97;;;10.70;99.90;;;;;;5266762;28;20464;-51
2022/09/20 11:45:03;;;;;;;3.07;1.73;;;10.70;99.90;;;;;;5256501;28;20463;-52
2022/09/20 11:47:53;;;;;;;0.97;0.97;;;10.80;99.90;;;;;;5263008;28;20483;-53
2022/09/20 11:50:44;;;;;;;1.70;1.70;;;10.90;99.90;;;;;;5262870;28;20438;-51
2022/09/20 11:53:38;;;;;;;1.90;1.10;;;11.20;99.90;;;;;;5256804;28;20594;-51
2022/09/20 11:56:23;;;;;;;1.40;1.33;;;11.30;99.90;;;;;;5256393;28;20459;-51
2022/09/20 11:59:00;;;;;;;1.67;1.33;;;11.30;99.90;;;;;;5262077;28;20441;-51
2022/09/20 12:01:35;;;;;;;1.47;1.37;;;11.20;99.90;;;;;;5252137;28;20423;-52
2022/09/20 12:04:18;;;;;;;1.63;1.63;;;11.20;99.90;;;;;;5254806;28;20438;-50
2022/09/20 12:07:06;;;;;;;2.57;2.27;;;11.20;99.90;;;;;;5262722;28;20456;-51
2022/09/20 12:09:40;;;;;;;2.37;2.17;;;11.30;99.90;;;;;;5264747;28;20440;-51
2022/09/20 12:12:21;;;;;;;4.23;3.83;;;11.50;99.90;;;;;;5261916;28;20457;-51
2022/09/20 12:14:54;;;;;;;5.13;3.43;;;11.70;99.90;;;;;;5254655;28;20432;-51
2022/09/20 12:18:07;;;;;;;6.10;4.13;;;11.80;99.90;;;;;;5261650;28;20440;-50
2022/09/20 12:20:37;;;;;;;8.53;4.90;;;12.00;99.90;;;;;;5260028;28;20463;-51
2022/09/20 12:23:39;;;;;;;8.37;5.77;;;12.10;99.90;;;;;;5266476;28;20981;-52
2022/09/20 12:26:19;;;;;;;6.93;5.03;;;12.20;99.90;;;;;;5260910;28;20210;-51
2022/09/20 12:28:53;;;;;;;5.93;5.20;;;12.10;99.90;;;;;;5268937;28;20431;-53
2022/09/20 12:31:32;;;;;;;5.40;4.03;;;12.10;99.90;;;;;;5267965;28;20439;-49
2022/09/20 12:34:09;;;;;;;7.70;5.23;;;12.20;99.90;;;;;;5270240;28;20436;-50
2022/09/20 12:37:04;;;;;;;4.73;4.17;;;12.50;99.90;;;;;;5271226;28;20791;-50
2022/09/20 12:39:38;;;;;;;6.53;3.93;;;12.50;99.90;;;;;;5263703;28;20436;-50
2022/09/20 12:42:09;;;;;;;4.43;2.47;;;12.10;99.90;;;;;;5271356;28;20431;-49
2022/09/20 12:44:54;;;;;;;2.50;2.30;;;11.90;99.90;;;;;;5264686;28;20901;-49
2022/09/20 12:47:33;;;;;;;2.47;2.37;;;11.90;99.90;;;;;;5267299;28;20216;-50
2022/09/20 12:53:14;;;;;;;2.40;2.23;;;11.80;99.90;;;;;;5268115;28;20498;-49
2022/09/20 12:56:04;;;;;;;2.70;2.47;;;11.80;99.90;;;;;;5265041;28;20435;-49
2022/09/20 12:58:35;;;;;;;3.90;2.20;;;12.00;99.90;;;;;;5265709;28;20428;-50
2022/09/20 13:01:05;;;;;;;1.30;1.20;;;12.20;99.90;;;;;;5262030;28;20520;-49
2022/09/20 13:03:45;;;;;;;0.83;0.83;;;12.50;99.90;;;;;;5269619;28;20193;-50
2022/09/20 13:06:19;;;;;;;0.80;0.80;;;12.80;99.90;;;;;;5272371;28;20205;-50
2022/09/20 13:09:04;;;;;;;1.77;1.67;;;13.00;99.90;;;;;;5270148;28;20442;-51
2022/09/20 13:11:52;;;;;;;0.70;0.70;;;13.30;99.90;;;;;;5266809;28;20672;-51
2022/09/20 13:14:31;;;;;;;5.00;1.80;;;13.30;99.90;;;;;;5266258;28;20448;-50
2022/09/20 13:17:23;;;;;;;0.77;0.77;;;13.10;99.90;;;;;;5269210;28;20447;-50
2022/09/20 13:19:55;;;;;;;0.33;0.33;;;13.00;99.90;;;;;;5262434;28;20834;-51
2022/09/20 13:22:31;;;;;;;0.60;0.60;;;13.20;99.90;;;;;;5284235;28;20423;-49
2022/09/20 13:25:05;;;;;;;0.60;0.60;;;13.40;99.90;;;;;;5269312;28;20473;-48
2022/09/20 13:27:59;;;;;;;0.93;0.67;;;13.40;99.90;;;;;;5271102;28;20461;-49
2022/09/20 13:30:33;;;;;;;3.23;2.00;;;13.50;99.90;;;;;;5262230;28;20481;-50
2022/09/20 13:33:19;;;;;;;1.90;1.77;;;13.60;99.90;;;;;;5265256;28;20471;-51
2022/09/20 13:35:56;;;;;;;2.93;1.87;;;13.70;99.90;;;;;;5263004;28;20464;-51
2022/09/20 13:38:30;;;;;;;1.67;1.07;;;14.00;99.90;;;;;;5266908;28;20834;-53
2022/09/20 13:41:11;;;;;;;2.73;2.50;;;14.40;99.90;;;;;;5266933;28;21196;-51
2022/09/20 13:43:48;;;;;;;1.60;1.13;;;14.40;99.90;;;;;;5271978;28;20871;-50
2022/09/20 13:46:28;;;;;;;2.73;1.10;;;14.30;99.90;;;;;;5269139;28;20447;-50
2022/09/20 13:49:08;;;;;;;3.13;2.30;;;14.30;99.90;;;;;;5269242;28;20427;-50
2022/09/20 13:51:38;;;;;;;1.83;1.73;;;14.40;99.90;;;;;;5268010;28;20487;-50
2022/09/20 13:54:24;;;;;;;3.10;1.33;;;14.40;99.90;;;;;;5267861;28;20451;-51
2022/09/20 13:57:02;;;;;;;8.30;1.10;;;14.40;99.90;;;;;;5265842;28;20202;-51
2022/09/20 13:59:39;;;;;;;2.40;1.07;;;14.30;99.90;;;;;;5265696;28;20847;-51
2022/09/20 14:02:33;;;;;;;2.20;2.00;;;14.60;99.90;;;;;;5267396;28;20429;-52
2022/09/20 14:05:06;;;;;;;0.90;0.73;;;14.80;99.90;;;;;;5255368;28;20431;-50
2022/09/20 14:07:37;;;;;;;3.30;1.70;;;15.00;99.90;;;;;;5259596;28;20416;-51
2022/09/20 14:10:29;;;;;;;1.77;0.90;;;15.30;99.90;;;;;;5270167;28;20993;-50
2022/09/20 14:13:05;;;;;;;3.13;0.50;;;15.70;99.90;;;;;;5269115;28;20473;-51
2022/09/20 14:15:40;;;;;;;0.40;0.40;;;15.90;99.90;;;;;;5266801;28;20464;-50
2022/09/20 14:18:17;;;;;;;0.67;0.67;;;15.90;99.90;;;;;;5261731;28;20484;-49
2022/09/20 14:20:48;;;;;;;0.43;0.40;;;15.80;99.90;;;;;;5257875;28;20494;-50
2022/09/20 14:23:21;;;;;;;1.40;0.63;;;15.70;99.90;;;;;;5266491;28;20455;-50
2022/09/20 14:26:29;;;;;;;0.93;0.40;;;15.60;99.90;;;;;;5278118;28;20209;-49
2022/09/20 14:29:33;;;;;;;0.33;0.33;;;15.40;99.90;;;;;;5259972;28;20501;-49
2022/09/20 14:32:08;;;;;;;1.00;1.00;;;15.10;99.90;;;;;;5258572;28;20463;-50